createdAt,value
2023-05-12T00:00:03.000Z,88.65
2023-05-12T00:01:02.000Z,89.03
2023-05-12T00:02:02.000Z,88.59
2023-05-12T00:03:02.000Z,88.64
2023-05-12T00:04:02.000Z,88.94
2023-05-12T00:05:02.000Z,89.05
2023-05-12T00:06:02.000Z,88.93
2023-05-12T00:07:04.000Z,88.67
2023-05-12T00:08:02.000Z,89.46
2023-05-12T00:09:02.000Z,89.34
2023-05-12T00:10:03.000Z,89.14
2023-05-12T00:11:02.000Z,89.19
2023-05-12T00:12:02.000Z,88.75
2023-05-12T00:13:02.000Z,88.97
2023-05-12T00:14:02.000Z,89.27
2023-05-12T00:15:02.000Z,89.66
2023-05-12T00:16:02.000Z,89.39
2023-05-12T00:17:03.000Z,89.08
2023-05-12T00:18:02.000Z,89.02
2023-05-12T00:19:02.000Z,89.48
2023-05-12T00:20:02.000Z,89.33
2023-05-12T00:21:02.000Z,89.25
2023-05-12T00:22:02.000Z,89.07
2023-05-12T00:23:02.000Z,89.60
2023-05-12T00:24:02.000Z,89.36
2023-05-12T00:25:02.000Z,89.62
2023-05-12T00:26:02.000Z,89.73
2023-05-12T00:27:02.000Z,89.85
2023-05-12T00:28:02.000Z,90.08
2023-05-12T00:29:02.000Z,89.83
2023-05-12T00:30:03.000Z,89.74
2023-05-12T00:31:03.000Z,89.45
2023-05-12T00:32:03.000Z,89.91
2023-05-12T00:33:04.000Z,90.26
2023-05-12T00:34:02.000Z,90.31
2023-05-12T00:35:03.000Z,90.25
2023-05-12T00:36:03.000Z,90.24
2023-05-12T00:37:03.000Z,90.16
2023-05-12T00:38:02.000Z,90.17
2023-05-12T00:39:02.000Z,90.23
2023-05-12T00:40:04.000Z,90.43
2023-05-12T00:41:03.000Z,90.61
2023-05-12T00:42:02.000Z,90.57
2023-05-12T00:43:03.000Z,90.73
2023-05-12T00:44:02.000Z,90.64
2023-05-12T00:45:05.000Z,90.89
2023-05-12T00:46:04.000Z,91.18
2023-05-12T00:47:03.000Z,91.52
2023-05-12T00:48:05.000Z,91.53
2023-05-12T00:49:02.000Z,91.47
2023-05-12T00:50:04.000Z,91.53
2023-05-12T00:51:03.000Z,91.44
2023-05-12T00:52:03.000Z,91.61
2023-05-12T00:53:03.000Z,91.65
2023-05-12T00:54:03.000Z,91.55
2023-05-12T00:55:04.000Z,91.70
2023-05-12T00:56:03.000Z,91.45
2023-05-12T00:57:03.000Z,91.34
2023-05-12T00:58:02.000Z,91.35
2023-05-12T00:59:02.000Z,91.40
2023-05-12T01:00:04.000Z,91.66
2023-05-12T01:01:02.000Z,91.42
2023-05-12T01:02:02.000Z,91.31
2023-05-12T01:03:02.000Z,91.26
2023-05-12T01:04:02.000Z,91.41
2023-05-12T01:05:02.000Z,91.36
2023-05-12T01:06:11.000Z,91.49
2023-05-12T01:07:11.000Z,91.52
2023-05-12T01:08:03.000Z,91.51
2023-05-12T01:09:02.000Z,91.36
2023-05-12T01:10:02.000Z,91.41
2023-05-12T01:11:02.000Z,91.59
2023-05-12T01:12:02.000Z,91.29
2023-05-12T01:13:02.000Z,91.55
2023-05-12T01:14:02.000Z,91.10
2023-05-12T01:15:02.000Z,91.40
2023-05-12T01:16:03.000Z,91.63
2023-05-12T01:17:08.000Z,91.89
2023-05-12T01:18:04.000Z,92.24
2023-05-12T01:19:07.000Z,92.28
2023-05-12T01:20:05.000Z,92.27
2023-05-12T01:21:02.000Z,92.14
2023-05-12T01:22:02.000Z,92.26
2023-05-12T01:23:03.000Z,92.38
2023-05-12T01:24:06.000Z,92.68
2023-05-12T01:25:06.000Z,92.83
2023-05-12T01:26:08.000Z,93.18
2023-05-12T01:27:03.000Z,93.40
2023-05-12T01:28:02.000Z,93.15
2023-05-12T01:29:02.000Z,93.43
2023-05-12T01:30:03.000Z,93.41
2023-05-12T01:31:04.000Z,93.58
2023-05-12T01:32:02.000Z,93.45
2023-05-12T01:33:02.000Z,93.74
2023-05-12T01:34:02.000Z,93.94
2023-05-12T01:35:02.000Z,93.52
2023-05-12T01:36:02.000Z,93.54
2023-05-12T01:37:02.000Z,93.77
2023-05-12T01:38:02.000Z,93.68
2023-05-12T01:39:02.000Z,93.52
2023-05-12T01:40:02.000Z,93.60
2023-05-12T01:41:02.000Z,93.43
2023-05-12T01:42:03.000Z,93.34
2023-05-12T01:43:02.000Z,93.25
2023-05-12T01:44:02.000Z,93.24
2023-05-12T01:45:02.000Z,93.10
2023-05-12T01:46:02.000Z,93.11
2023-05-12T01:47:02.000Z,92.94
2023-05-12T01:48:02.000Z,93.08
2023-05-12T01:49:02.000Z,92.77
2023-05-12T01:50:02.000Z,92.56
2023-05-12T01:51:05.000Z,92.37
2023-05-12T01:52:02.000Z,92.29
2023-05-12T01:53:02.000Z,92.22
2023-05-12T01:54:02.000Z,92.33
2023-05-12T01:55:02.000Z,92.60
2023-05-12T01:56:02.000Z,92.43
2023-05-12T01:57:02.000Z,92.34
2023-05-12T01:58:02.000Z,92.26
2023-05-12T01:59:02.000Z,92.22
2023-05-12T02:00:02.000Z,92.01
2023-05-12T02:01:02.000Z,91.90
2023-05-12T02:02:02.000Z,91.87
2023-05-12T02:03:02.000Z,91.79
2023-05-12T02:04:03.000Z,91.98
2023-05-12T02:05:02.000Z,91.89
2023-05-12T02:06:02.000Z,91.66
2023-05-12T02:07:02.000Z,91.54
2023-05-12T02:08:03.000Z,91.94
2023-05-12T02:09:02.000Z,91.84
2023-05-12T02:10:02.000Z,91.64
2023-05-12T02:11:06.000Z,91.39
2023-05-12T02:12:03.000Z,91.31
2023-05-12T02:13:02.000Z,91.28
2023-05-12T02:14:02.000Z,91.28
2023-05-12T02:15:02.000Z,91.97
2023-05-12T02:16:02.000Z,91.91
2023-05-12T02:17:03.000Z,91.92
2023-05-12T02:18:02.000Z,91.77
2023-05-12T02:19:02.000Z,91.78
2023-05-12T02:20:04.000Z,91.66
2023-05-12T02:21:02.000Z,91.41
2023-05-12T02:22:02.000Z,91.52
2023-05-12T02:23:02.000Z,91.70
2023-05-12T02:24:02.000Z,91.89
2023-05-12T02:25:02.000Z,91.79
2023-05-12T02:26:02.000Z,91.81
2023-05-12T02:27:02.000Z,92.07
2023-05-12T02:28:03.000Z,91.64
2023-05-12T02:29:02.000Z,91.40
2023-05-12T02:30:03.000Z,91.38
2023-05-12T02:31:02.000Z,91.74
2023-05-12T02:32:03.000Z,91.67
2023-05-12T02:33:03.000Z,92.04
2023-05-12T02:34:02.000Z,91.78
2023-05-12T02:35:02.000Z,91.99
2023-05-12T02:36:02.000Z,91.84
2023-05-12T02:37:02.000Z,91.48
2023-05-12T02:38:03.000Z,91.27
2023-05-12T02:39:02.000Z,91.12
2023-05-12T02:40:02.000Z,91.15
2023-05-12T02:41:02.000Z,91.27
2023-05-12T02:42:02.000Z,91.15
2023-05-12T02:43:02.000Z,91.22
2023-05-12T02:44:02.000Z,91.10
2023-05-12T02:45:02.000Z,90.98
2023-05-12T02:46:02.000Z,90.84
2023-05-12T02:47:03.000Z,90.79
2023-05-12T02:48:02.000Z,90.75
2023-05-12T02:49:02.000Z,90.76
2023-05-12T02:50:02.000Z,90.69
2023-05-12T02:51:02.000Z,90.67
2023-05-12T02:52:02.000Z,90.70
2023-05-12T02:53:02.000Z,90.60
2023-05-12T02:54:02.000Z,90.61
2023-05-12T02:55:02.000Z,90.52
2023-05-12T02:56:02.000Z,90.47
2023-05-12T02:57:03.000Z,90.41
2023-05-12T02:58:02.000Z,90.31
2023-05-12T02:59:02.000Z,90.28
2023-05-12T03:00:05.000Z,90.24
2023-05-12T03:01:02.000Z,90.18
2023-05-12T03:02:03.000Z,90.18
2023-05-12T03:03:02.000Z,90.17
2023-05-12T03:04:01.000Z,90.06
2023-05-12T03:05:02.000Z,89.99
2023-05-12T03:06:03.000Z,89.94
2023-05-12T03:07:02.000Z,90.10
2023-05-12T03:08:02.000Z,90.45
2023-05-12T03:09:02.000Z,90.56
2023-05-12T03:10:02.000Z,90.62
2023-05-12T03:11:02.000Z,90.57
2023-05-12T03:12:02.000Z,90.54
2023-05-12T03:13:01.000Z,90.53
2023-05-12T03:14:02.000Z,91.38
2023-05-12T03:15:03.000Z,91.38
2023-05-12T03:16:02.000Z,91.49
2023-05-12T03:17:02.000Z,91.28
2023-05-12T03:18:02.000Z,91.64
2023-05-12T03:19:03.000Z,91.93
2023-05-12T03:20:02.000Z,91.77
2023-05-12T03:21:02.000Z,91.74
2023-05-12T03:22:02.000Z,91.66
2023-05-12T03:23:02.000Z,91.55
2023-05-12T03:24:02.000Z,90.90
2023-05-12T03:25:07.000Z,91.05
2023-05-12T03:26:01.000Z,91.07
2023-05-12T03:27:02.000Z,90.74
2023-05-12T03:28:02.000Z,90.91
2023-05-12T03:29:01.000Z,90.82
2023-05-12T03:30:04.000Z,90.85
2023-05-12T03:31:01.000Z,91.05
2023-05-12T03:32:02.000Z,91.69
2023-05-12T03:33:01.000Z,92.10
2023-05-12T03:34:02.000Z,92.28
2023-05-12T03:35:02.000Z,92.27
2023-05-12T03:36:02.000Z,92.84
2023-05-12T03:37:02.000Z,92.69
2023-05-12T03:38:01.000Z,92.88
2023-05-12T03:39:02.000Z,93.06
2023-05-12T03:40:02.000Z,92.63
2023-05-12T03:41:03.000Z,92.74
2023-05-12T03:42:02.000Z,92.66
2023-05-12T03:43:01.000Z,92.72
2023-05-12T03:44:04.000Z,92.58
2023-05-12T03:45:02.000Z,92.61
2023-05-12T03:46:02.000Z,92.47
2023-05-12T03:47:02.000Z,92.24
2023-05-12T03:48:02.000Z,92.39
2023-05-12T03:49:01.000Z,92.45
2023-05-12T03:50:02.000Z,92.38
2023-05-12T03:51:02.000Z,92.33
2023-05-12T03:52:02.000Z,92.34
2023-05-12T03:53:01.000Z,92.45
2023-05-12T03:54:02.000Z,92.64
2023-05-12T03:55:03.000Z,92.93
2023-05-12T03:56:02.000Z,92.94
2023-05-12T03:57:02.000Z,92.92
2023-05-12T03:58:02.000Z,93.10
2023-05-12T03:59:02.000Z,92.84
2023-05-12T04:00:05.000Z,92.76
2023-05-12T04:01:02.000Z,92.47
2023-05-12T04:02:02.000Z,92.76
2023-05-12T04:03:01.000Z,92.45
2023-05-12T04:04:02.000Z,92.60
2023-05-12T04:05:02.000Z,92.45
2023-05-12T04:06:02.000Z,92.53
2023-05-12T04:07:02.000Z,92.46
2023-05-12T04:08:02.000Z,92.25
2023-05-12T04:09:02.000Z,92.42
2023-05-12T04:10:02.000Z,92.18
2023-05-12T04:11:02.000Z,92.06
2023-05-12T04:12:02.000Z,92.02
2023-05-12T04:13:01.000Z,92.02
2023-05-12T04:14:01.000Z,92.03
2023-05-12T04:15:02.000Z,92.28
2023-05-12T04:16:02.000Z,92.29
2023-05-12T04:17:02.000Z,92.03
2023-05-12T04:18:02.000Z,91.91
2023-05-12T04:19:01.000Z,91.84
2023-05-12T04:20:03.000Z,91.74
2023-05-12T04:21:02.000Z,91.91
2023-05-12T04:22:02.000Z,91.94
2023-05-12T04:23:01.000Z,91.73
2023-05-12T04:24:02.000Z,91.64
2023-05-12T04:25:02.000Z,91.88
2023-05-12T04:26:02.000Z,91.88
2023-05-12T04:27:02.000Z,91.71
2023-05-12T04:28:02.000Z,91.59
2023-05-12T04:29:01.000Z,91.72
2023-05-12T04:30:02.000Z,91.51
2023-05-12T04:31:02.000Z,91.31
2023-05-12T04:32:02.000Z,91.17
2023-05-12T04:33:02.000Z,91.18
2023-05-12T04:34:02.000Z,91.19
2023-05-12T04:35:02.000Z,91.36
2023-05-12T04:36:02.000Z,91.23
2023-05-12T04:37:02.000Z,91.29
2023-05-12T04:38:02.000Z,91.41
2023-05-12T04:39:02.000Z,91.22
2023-05-12T04:40:04.000Z,91.17
2023-05-12T04:41:02.000Z,90.93
2023-05-12T04:42:02.000Z,90.97
2023-05-12T04:43:01.000Z,90.96
2023-05-12T04:44:02.000Z,91.08
2023-05-12T04:45:02.000Z,90.91
2023-05-12T04:46:02.000Z,90.74
2023-05-12T04:47:02.000Z,90.71
2023-05-12T04:48:02.000Z,90.58
2023-05-12T04:49:02.000Z,90.64
2023-05-12T04:50:03.000Z,90.74
2023-05-12T04:51:02.000Z,90.71
2023-05-12T04:52:04.000Z,90.69
2023-05-12T04:53:01.000Z,90.63
2023-05-12T04:54:02.000Z,90.61
2023-05-12T04:55:03.000Z,90.61
2023-05-12T04:56:02.000Z,90.63
2023-05-12T04:57:02.000Z,90.64
2023-05-12T04:58:01.000Z,90.59
2023-05-12T04:59:02.000Z,90.65
2023-05-12T05:00:04.000Z,90.60
2023-05-12T05:01:02.000Z,90.55
2023-05-12T05:02:02.000Z,90.51
2023-05-12T05:03:02.000Z,90.57
2023-05-12T05:04:01.000Z,90.50
2023-05-12T05:05:02.000Z,90.46
2023-05-12T05:06:02.000Z,90.38
2023-05-12T05:07:02.000Z,90.85
2023-05-12T05:08:01.000Z,90.83
2023-05-12T05:09:02.000Z,90.57
2023-05-12T05:10:02.000Z,90.49
2023-05-12T05:11:01.000Z,90.59
2023-05-12T05:12:02.000Z,90.72
2023-05-12T05:13:01.000Z,90.79
2023-05-12T05:14:02.000Z,90.90
2023-05-12T05:15:02.000Z,90.81
2023-05-12T05:16:02.000Z,90.73
2023-05-12T05:17:02.000Z,91.06
2023-05-12T05:18:02.000Z,90.79
2023-05-12T05:19:01.000Z,90.71
2023-05-12T05:20:02.000Z,90.77
2023-05-12T05:21:01.000Z,90.79
2023-05-12T05:22:02.000Z,90.62
2023-05-12T05:23:01.000Z,90.71
2023-05-12T05:24:01.000Z,90.59
2023-05-12T05:25:02.000Z,90.43
2023-05-12T05:26:02.000Z,90.34
2023-05-12T05:27:02.000Z,90.30
2023-05-12T05:28:01.000Z,90.28
2023-05-12T05:29:02.000Z,90.25
2023-05-12T05:30:02.000Z,90.22
2023-05-12T05:31:01.000Z,90.19
2023-05-12T05:32:03.000Z,90.18
2023-05-12T05:33:02.000Z,90.11
2023-05-12T05:34:02.000Z,90.13
2023-05-12T05:35:02.000Z,90.01
2023-05-12T05:36:02.000Z,89.89
2023-05-12T05:37:02.000Z,89.90
2023-05-12T05:38:02.000Z,89.87
2023-05-12T05:39:02.000Z,89.86
2023-05-12T05:40:03.000Z,89.99
2023-05-12T05:41:02.000Z,89.85
2023-05-12T05:42:03.000Z,90.02
2023-05-12T05:43:02.000Z,90.04
2023-05-12T05:44:02.000Z,90.00
2023-05-12T05:45:02.000Z,90.00
2023-05-12T05:46:02.000Z,89.97
2023-05-12T05:47:02.000Z,90.73
2023-05-12T05:48:02.000Z,90.66
2023-05-12T05:49:02.000Z,90.52
2023-05-12T05:50:03.000Z,90.70
2023-05-12T05:51:02.000Z,90.59
2023-05-12T05:52:02.000Z,90.86
2023-05-12T05:53:02.000Z,90.76
2023-05-12T05:54:02.000Z,90.58
2023-05-12T05:55:02.000Z,90.58
2023-05-12T05:56:02.000Z,90.62
2023-05-12T05:57:02.000Z,90.66
2023-05-12T05:58:02.000Z,90.88
2023-05-12T05:59:04.000Z,90.54
2023-05-12T06:00:05.000Z,90.64
2023-05-12T06:01:03.000Z,90.44
2023-05-12T06:02:02.000Z,90.24
2023-05-12T06:03:02.000Z,90.33
2023-05-12T06:04:01.000Z,90.23
2023-05-12T06:05:02.000Z,90.41
2023-05-12T06:06:02.000Z,90.32
2023-05-12T06:07:02.000Z,90.72
2023-05-12T06:08:03.000Z,90.61
2023-05-12T06:09:02.000Z,90.85
2023-05-12T06:10:03.000Z,91.22
2023-05-12T06:11:02.000Z,91.35
2023-05-12T06:12:02.000Z,91.31
2023-05-12T06:13:02.000Z,91.35
2023-05-12T06:14:01.000Z,90.82
2023-05-12T06:15:02.000Z,90.87
2023-05-12T06:16:02.000Z,91.10
2023-05-12T06:17:01.000Z,90.66
2023-05-12T06:18:02.000Z,90.75
2023-05-12T06:19:01.000Z,90.81
2023-05-12T06:20:04.000Z,91.11
2023-05-12T06:21:02.000Z,91.22
2023-05-12T06:22:02.000Z,91.04
2023-05-12T06:23:01.000Z,90.91
2023-05-12T06:24:02.000Z,90.68
2023-05-12T06:25:03.000Z,91.18
2023-05-12T06:26:02.000Z,91.01
2023-05-12T06:27:01.000Z,90.73
2023-05-12T06:28:01.000Z,90.80
2023-05-12T06:29:04.000Z,91.50
2023-05-12T06:30:03.000Z,91.47
2023-05-12T06:31:05.000Z,91.49
2023-05-12T06:32:02.000Z,91.73
2023-05-12T06:33:02.000Z,91.93
2023-05-12T06:34:02.000Z,92.28
2023-05-12T06:35:02.000Z,92.16
2023-05-12T06:36:02.000Z,90.61
2023-05-12T06:37:01.000Z,91.15
2023-05-12T06:38:01.000Z,91.28
2023-05-12T06:39:02.000Z,91.50
2023-05-12T06:40:02.000Z,91.00
2023-05-12T06:41:01.000Z,91.26
2023-05-12T06:42:02.000Z,90.14
2023-05-12T06:43:01.000Z,90.44
2023-05-12T06:44:02.000Z,90.59
2023-05-12T06:45:02.000Z,90.57
2023-05-12T06:46:01.000Z,90.33
2023-05-12T06:47:02.000Z,90.19
2023-05-12T06:48:04.000Z,90.17
2023-05-12T06:49:01.000Z,90.38
2023-05-12T06:50:02.000Z,90.30
2023-05-12T06:51:02.000Z,90.55
2023-05-12T06:52:03.000Z,89.75
2023-05-12T06:53:02.000Z,90.20
2023-05-12T06:54:01.000Z,90.17
2023-05-12T06:55:02.000Z,89.98
2023-05-12T06:56:03.000Z,89.19
2023-05-12T06:57:01.000Z,88.94
2023-05-12T06:58:01.000Z,89.23
2023-05-12T06:59:02.000Z,89.22
2023-05-12T07:00:02.000Z,89.14
2023-05-12T07:01:02.000Z,88.67
2023-05-12T07:02:01.000Z,88.73
2023-05-12T07:03:02.000Z,88.81
2023-05-12T07:04:01.000Z,87.46
2023-05-12T07:05:01.000Z,87.91
2023-05-12T07:06:01.000Z,88.18
2023-05-12T07:07:01.000Z,88.70
2023-05-12T07:08:01.000Z,87.77
2023-05-12T07:09:02.000Z,88.22
2023-05-12T07:10:01.000Z,88.23
2023-05-12T07:11:01.000Z,88.46
2023-05-12T07:12:02.000Z,88.44
2023-05-12T07:13:02.000Z,88.44
2023-05-12T07:14:01.000Z,88.55
2023-05-12T07:15:03.000Z,88.54
2023-05-12T07:16:02.000Z,89.01
2023-05-12T07:17:02.000Z,88.37
2023-05-12T07:18:01.000Z,88.36
2023-05-12T07:19:04.000Z,88.61
2023-05-12T07:20:03.000Z,88.23
2023-05-12T07:21:02.000Z,88.54
2023-05-12T07:22:02.000Z,87.60
2023-05-12T07:23:01.000Z,88.38
2023-05-12T07:24:02.000Z,87.69
2023-05-12T07:25:02.000Z,88.42
2023-05-12T07:26:03.000Z,88.80
2023-05-12T07:27:02.000Z,87.95
2023-05-12T07:28:01.000Z,88.62
2023-05-12T07:29:03.000Z,88.41
2023-05-12T07:30:04.000Z,88.95
2023-05-12T07:31:02.000Z,89.20
2023-05-12T07:32:02.000Z,89.15
2023-05-12T07:33:01.000Z,89.36
2023-05-12T07:34:01.000Z,88.70
2023-05-12T07:35:02.000Z,88.49
2023-05-12T07:36:03.000Z,88.69
2023-05-12T07:37:03.000Z,88.59
2023-05-12T07:38:02.000Z,88.26
2023-05-12T07:39:01.000Z,88.22
2023-05-12T07:40:03.000Z,88.46
2023-05-12T07:41:02.000Z,88.68
2023-05-12T07:42:02.000Z,88.67
2023-05-12T07:43:01.000Z,88.39
2023-05-12T07:44:01.000Z,88.48
2023-05-12T07:45:04.000Z,88.64
2023-05-12T07:46:02.000Z,88.77
2023-05-12T07:47:02.000Z,89.01
2023-05-12T07:48:02.000Z,89.55
2023-05-12T07:49:01.000Z,88.56
2023-05-12T07:50:02.000Z,88.75
2023-05-12T07:51:02.000Z,88.86
2023-05-12T07:52:02.000Z,88.75
2023-05-12T07:53:03.000Z,88.83
2023-05-12T07:54:01.000Z,88.98
2023-05-12T07:55:02.000Z,88.79
2023-05-12T07:56:02.000Z,88.95
2023-05-12T07:57:02.000Z,88.71
2023-05-12T07:58:02.000Z,88.96
2023-05-12T07:59:02.000Z,89.11
2023-05-12T08:00:04.000Z,89.56
2023-05-12T08:01:04.000Z,89.88
2023-05-12T08:02:02.000Z,89.90
2023-05-12T08:03:02.000Z,89.70
2023-05-12T08:04:01.000Z,89.63
2023-05-12T08:05:02.000Z,89.11
2023-05-12T08:06:04.000Z,89.23
2023-05-12T08:07:01.000Z,89.72
2023-05-12T08:08:01.000Z,89.32
2023-05-12T08:09:01.000Z,88.96
2023-05-12T08:10:03.000Z,89.15
2023-05-12T08:11:01.000Z,89.59
2023-05-12T08:12:01.000Z,89.78
2023-05-12T08:13:01.000Z,89.68
2023-05-12T08:14:01.000Z,90.13
2023-05-12T08:15:02.000Z,90.00
2023-05-12T08:16:02.000Z,90.27
2023-05-12T08:17:03.000Z,90.27
2023-05-12T08:18:01.000Z,90.98
2023-05-12T08:19:01.000Z,91.14
2023-05-12T08:20:05.000Z,91.05
2023-05-12T08:21:01.000Z,91.64
2023-05-12T08:22:02.000Z,91.03
2023-05-12T08:23:01.000Z,90.64
2023-05-12T08:24:01.000Z,90.89
2023-05-12T08:25:01.000Z,90.53
2023-05-12T08:26:04.000Z,90.62
2023-05-12T08:27:01.000Z,90.84
2023-05-12T08:28:01.000Z,90.91
2023-05-12T08:29:03.000Z,91.00
2023-05-12T08:30:02.000Z,90.10
2023-05-12T08:31:01.000Z,89.67
2023-05-12T08:32:02.000Z,89.52
2023-05-12T08:33:02.000Z,89.51
2023-05-12T08:34:01.000Z,89.50
2023-05-12T08:35:02.000Z,89.59
2023-05-12T08:36:02.000Z,89.56
2023-05-12T08:37:03.000Z,89.16
2023-05-12T08:38:02.000Z,88.20
2023-05-12T08:39:02.000Z,88.46
2023-05-12T08:40:13.000Z,88.66
2023-05-12T08:41:14.000Z,87.51
2023-05-12T08:42:25.000Z,87.58
2023-05-12T08:43:12.000Z,87.85
2023-05-12T08:44:03.000Z,87.54
2023-05-12T08:45:04.000Z,87.28
2023-05-12T08:46:03.000Z,87.60
2023-05-12T08:47:03.000Z,87.71
2023-05-12T08:48:04.000Z,87.50
2023-05-12T08:49:03.000Z,86.83
2023-05-12T08:50:03.000Z,86.13
2023-05-12T08:51:06.000Z,85.86
2023-05-12T08:52:03.000Z,85.36
2023-05-12T08:53:03.000Z,86.30
2023-05-12T08:54:03.000Z,86.10
2023-05-12T08:55:03.000Z,85.52
2023-05-12T08:56:05.000Z,86.15
2023-05-12T08:57:11.000Z,86.34
2023-05-12T08:58:02.000Z,85.75
2023-05-12T08:59:04.000Z,85.36
2023-05-12T09:00:02.000Z,86.30
2023-05-12T09:01:04.000Z,87.92
2023-05-12T09:02:04.000Z,88.81
2023-05-12T09:03:04.000Z,88.56
2023-05-12T09:04:05.000Z,87.37
2023-05-12T09:05:02.000Z,85.47
2023-05-12T09:06:04.000Z,85.02
2023-05-12T09:07:03.000Z,86.04
2023-05-12T09:08:02.000Z,86.37
2023-05-12T09:09:01.000Z,86.71
2023-05-12T09:10:04.000Z,86.95
2023-05-12T09:11:01.000Z,87.29
2023-05-12T09:12:05.000Z,86.57
2023-05-12T09:13:11.000Z,86.73
2023-05-12T09:14:06.000Z,87.46
2023-05-12T09:15:09.000Z,86.52
2023-05-12T09:16:05.000Z,86.61
2023-05-12T09:17:02.000Z,86.66
2023-05-12T09:18:01.000Z,86.44
2023-05-12T09:19:02.000Z,86.77
2023-05-12T09:20:03.000Z,86.91
2023-05-12T09:21:01.000Z,86.51
2023-05-12T09:22:01.000Z,86.52
2023-05-12T09:23:11.000Z,86.86
2023-05-12T09:24:05.000Z,86.84
2023-05-12T09:25:11.000Z,86.89
2023-05-12T09:26:02.000Z,87.04
2023-05-12T09:27:02.000Z,87.36
2023-05-12T09:28:01.000Z,87.09
2023-05-12T09:29:05.000Z,86.94
2023-05-12T09:30:01.000Z,86.79
2023-05-12T09:31:18.000Z,86.11
2023-05-12T09:32:02.000Z,86.15
2023-05-12T09:33:07.000Z,86.29
2023-05-12T09:34:07.000Z,86.47
2023-05-12T09:35:08.000Z,86.35
2023-05-12T09:36:01.000Z,86.46
2023-05-12T09:37:03.000Z,86.42
2023-05-12T09:38:09.000Z,86.34
2023-05-12T09:39:04.000Z,86.29
2023-05-12T09:40:04.000Z,86.30
2023-05-12T09:41:01.000Z,86.03
2023-05-12T09:42:02.000Z,86.15
2023-05-12T09:43:05.000Z,85.91
2023-05-12T09:44:02.000Z,85.93
2023-05-12T09:45:03.000Z,85.26
2023-05-12T09:46:04.000Z,85.14
2023-05-12T09:47:05.000Z,84.70
2023-05-12T09:48:08.000Z,84.96
2023-05-12T09:49:01.000Z,84.44
2023-05-12T09:50:03.000Z,84.19
2023-05-12T09:51:02.000Z,83.80
2023-05-12T09:52:02.000Z,83.87
2023-05-12T09:53:04.000Z,84.07
2023-05-12T09:54:02.000Z,84.21
2023-05-12T09:55:07.000Z,84.12
2023-05-12T09:56:01.000Z,83.37
2023-05-12T09:57:03.000Z,83.13
2023-05-12T09:58:07.000Z,83.26
2023-05-12T09:59:03.000Z,82.88
2023-05-12T10:00:03.000Z,83.62
2023-05-12T10:01:02.000Z,83.97
2023-05-12T10:02:07.000Z,84.07
2023-05-12T10:03:08.000Z,83.98
2023-05-12T10:04:05.000Z,82.17
2023-05-12T10:05:06.000Z,82.87
2023-05-12T10:06:05.000Z,82.54
2023-05-12T10:07:01.000Z,82.85
2023-05-12T10:08:05.000Z,82.75
2023-05-12T10:09:09.000Z,82.80
2023-05-12T10:10:03.000Z,82.62
2023-05-12T10:11:03.000Z,82.62
2023-05-12T10:12:02.000Z,82.44
2023-05-12T10:13:03.000Z,82.35
2023-05-12T10:14:02.000Z,82.42
2023-05-12T10:15:02.000Z,82.39
2023-05-12T10:16:02.000Z,82.21
2023-05-12T10:17:03.000Z,82.12
2023-05-12T10:18:01.000Z,82.22
2023-05-12T10:19:01.000Z,82.06
2023-05-12T10:20:02.000Z,82.14
2023-05-12T10:21:01.000Z,81.96
2023-05-12T10:22:03.000Z,82.17
2023-05-12T10:23:02.000Z,81.74
2023-05-12T10:24:02.000Z,81.51
2023-05-12T10:25:03.000Z,81.46
2023-05-12T10:26:01.000Z,81.81
2023-05-12T10:27:03.000Z,81.51
2023-05-12T10:28:02.000Z,81.66
2023-05-12T10:29:01.000Z,81.90
2023-05-12T10:30:03.000Z,82.15
2023-05-12T10:31:04.000Z,82.15
2023-05-12T10:32:01.000Z,82.18
2023-05-12T10:33:01.000Z,80.49
2023-05-12T10:34:01.000Z,80.29
2023-05-12T10:35:09.000Z,80.50
2023-05-12T10:36:02.000Z,80.82
2023-05-12T10:37:07.000Z,80.96
2023-05-12T10:38:07.000Z,80.60
2023-05-12T10:39:03.000Z,79.67
2023-05-12T10:40:04.000Z,80.60
2023-05-12T10:41:04.000Z,81.01
2023-05-12T10:42:05.000Z,80.91
2023-05-12T10:43:02.000Z,80.54
2023-05-12T10:44:01.000Z,80.11
2023-05-12T10:45:14.000Z,79.38
2023-05-12T10:46:13.000Z,79.50
2023-05-12T10:47:11.000Z,78.86
2023-05-12T10:48:05.000Z,79.24
2023-05-12T10:49:08.000Z,79.59
2023-05-12T10:50:02.000Z,79.56
2023-05-12T10:51:07.000Z,78.36
2023-05-12T10:52:01.000Z,79.04
2023-05-12T10:53:01.000Z,79.74
2023-05-12T10:54:04.000Z,79.76
2023-05-12T10:55:02.000Z,79.70
2023-05-12T10:56:02.000Z,77.99
2023-05-12T10:57:01.000Z,78.37
2023-05-12T10:58:08.000Z,78.76
2023-05-12T10:59:20.000Z,79.34
2023-05-12T11:00:03.000Z,78.59
2023-05-12T11:01:04.000Z,79.76
2023-05-12T11:02:04.000Z,80.05
2023-05-12T11:03:09.000Z,79.92
2023-05-12T11:04:11.000Z,79.24
2023-05-12T11:05:09.000Z,79.09
2023-05-12T11:06:03.000Z,78.48
2023-05-12T11:07:03.000Z,78.89
2023-05-12T11:08:03.000Z,77.56
2023-05-12T11:09:03.000Z,78.25
2023-05-12T11:10:03.000Z,78.52
2023-05-12T11:11:01.000Z,78.78
2023-05-12T11:12:04.000Z,79.01
2023-05-12T11:13:02.000Z,78.44
2023-05-12T11:14:01.000Z,78.39
2023-05-12T11:15:03.000Z,78.88
2023-05-12T11:16:01.000Z,79.14
2023-05-12T11:17:03.000Z,78.62
2023-05-12T11:18:02.000Z,78.74
2023-05-12T11:19:03.000Z,78.93
2023-05-12T11:20:01.000Z,78.92
2023-05-12T11:21:08.000Z,78.91
2023-05-12T11:22:09.000Z,79.11
2023-05-12T11:23:02.000Z,79.04
2023-05-12T11:24:01.000Z,79.32
2023-05-12T11:25:07.000Z,79.18
2023-05-12T11:26:03.000Z,79.64
2023-05-12T11:27:03.000Z,79.79
2023-05-12T11:28:01.000Z,79.81
2023-05-12T11:29:02.000Z,79.52
2023-05-12T11:30:03.000Z,79.81
2023-05-12T11:31:02.000Z,79.52
2023-05-12T11:32:01.000Z,78.72
2023-05-12T11:33:01.000Z,78.93
2023-05-12T11:34:06.000Z,78.94
2023-05-12T11:35:07.000Z,78.84
2023-05-12T11:36:03.000Z,79.11
2023-05-12T11:37:02.000Z,77.34
2023-05-12T11:38:13.000Z,77.97
2023-05-12T11:39:01.000Z,77.95
2023-05-12T11:40:09.000Z,77.99
2023-05-12T11:41:02.000Z,78.57
2023-05-12T11:42:06.000Z,78.74
2023-05-12T11:43:08.000Z,78.85
2023-05-12T11:44:20.000Z,79.28
2023-05-12T11:45:02.000Z,79.69
2023-05-12T11:46:02.000Z,79.77
2023-05-12T11:47:12.000Z,79.74
2023-05-12T11:48:10.000Z,79.77
2023-05-12T11:49:09.000Z,79.66
2023-05-12T11:50:02.000Z,79.53
2023-05-12T11:51:02.000Z,79.53
2023-05-12T11:52:01.000Z,79.44
2023-05-12T11:53:01.000Z,79.32
2023-05-12T11:54:05.000Z,79.44
2023-05-12T11:55:05.000Z,79.53
2023-05-12T11:56:02.000Z,79.88
2023-05-12T11:57:03.000Z,80.02
2023-05-12T11:58:03.000Z,80.22
2023-05-12T11:59:02.000Z,80.41
2023-05-12T12:00:06.000Z,80.54
2023-05-12T12:01:07.000Z,80.60
2023-05-12T12:02:02.000Z,80.57
2023-05-12T12:03:06.000Z,80.38
2023-05-12T12:04:02.000Z,80.29
2023-05-12T12:05:02.000Z,80.27
2023-05-12T12:06:02.000Z,80.32
2023-05-12T12:07:03.000Z,80.26
2023-05-12T12:08:07.000Z,80.49
2023-05-12T12:09:01.000Z,80.71
2023-05-12T12:10:11.000Z,80.85
2023-05-12T12:11:02.000Z,81.07
2023-05-12T12:12:03.000Z,81.23
2023-05-12T12:13:02.000Z,81.37
2023-05-12T12:14:02.000Z,81.42
2023-05-12T12:15:02.000Z,81.52
2023-05-12T12:16:02.000Z,81.73
2023-05-12T12:17:03.000Z,81.83
2023-05-12T12:18:01.000Z,81.90
2023-05-12T12:19:01.000Z,81.99
2023-05-12T12:20:02.000Z,83.50
2023-05-12T12:21:02.000Z,82.88
2023-05-12T12:22:02.000Z,82.77
2023-05-12T12:23:01.000Z,82.67
2023-05-12T12:24:02.000Z,82.64
2023-05-12T12:25:02.000Z,82.58
2023-05-12T12:26:02.000Z,82.59
2023-05-12T12:27:03.000Z,82.63
2023-05-12T12:28:02.000Z,82.90
2023-05-12T12:29:01.000Z,82.81
2023-05-12T12:30:03.000Z,82.93
2023-05-12T12:31:02.000Z,83.11
2023-05-12T12:32:02.000Z,84.20
2023-05-12T12:33:02.000Z,83.57
2023-05-12T12:34:03.000Z,83.92
2023-05-12T12:35:03.000Z,83.81
2023-05-12T12:36:02.000Z,84.25
2023-05-12T12:37:02.000Z,83.89
2023-05-12T12:38:02.000Z,83.92
2023-05-12T12:39:02.000Z,85.03
2023-05-12T12:40:07.000Z,85.04
2023-05-12T12:41:02.000Z,84.49
2023-05-12T12:42:02.000Z,85.09
2023-05-12T12:43:01.000Z,85.11
2023-05-12T12:44:02.000Z,84.71
2023-05-12T12:45:03.000Z,84.56
2023-05-12T12:46:01.000Z,84.44
2023-05-12T12:47:02.000Z,84.72
2023-05-12T12:48:01.000Z,84.78
2023-05-12T12:49:01.000Z,84.52
2023-05-12T12:50:02.000Z,84.57
2023-05-12T12:51:01.000Z,84.69
2023-05-12T12:52:02.000Z,84.72